Time;durP1;ratioP1;P1;durP2;ratioP2;P2;SDS_P1;SDS_P2;PMS_P1;PMS_P2;Temp;Humidity;BMP_temperature;BMP_pressure;BME280_temperature;BME280_humidity;BME280_pressure;Samples;Min_cycle;Max_cycle;Signal;HPM_P1;HPM_P2
2021/01/14 00:00:33;;;;;;;2.70;1.70;;;;;;;;;;5106493;28;20046;-57
2021/01/14 00:02:59;;;;;;;3.65;2.13;;;;;;;;;;5106395;28;20020;-57
2021/01/14 00:05:25;;;;;;;2.85;1.90;;;;;;;;;;5096014;27;20422;-57
2021/01/14 00:07:53;;;;;;;2.42;1.60;;;;;;;;;;5106047;28;20028;-57
2021/01/14 00:10:21;;;;;;;3.55;1.95;;;;;;;;;;5105630;28;20046;-57
2021/01/14 00:12:48;;;;;;;2.63;1.60;;;;;;;;;;5105962;28;20015;-57
2021/01/14 00:15:15;;;;;;;2.83;1.85;;;;;;;;;;5096003;28;20369;-57
2021/01/14 00:17:42;;;;;;;2.47;1.77;;;;;;;;;;5085677;28;20103;-57
2021/01/14 00:20:09;;;;;;;3.20;2.22;;;;;;;;;;5084981;28;20024;-57
2021/01/14 00:22:36;;;;;;;3.08;2.22;;;;;;;;;;5085999;28;20032;-57
2021/01/14 00:25:04;;;;;;;3.97;2.20;;;;;;;;;;5086169;27;20082;-57
2021/01/14 00:27:30;;;;;;;3.03;1.80;;;;;;;;;;5096511;28;20023;-57
2021/01/14 00:29:56;;;;;;;3.28;1.73;;;;;;;;;;5105677;28;20057;-57
2021/01/14 00:32:23;;;;;;;2.70;1.80;;;;;;;;;;5104697;28;20042;-57
2021/01/14 00:34:50;;;;;;;2.55;1.70;;;;;;;;;;5103946;28;20024;-57
2021/01/14 00:40:01;;;;;;;5.43;2.75;;;;;;;;;;5105310;28;20043;-57
2021/01/14 00:42:28;;;;;;;4.38;2.80;;;;;;;;;;5106053;28;20034;-57
2021/01/14 00:44:54;;;;;;;3.38;2.00;;;;;;;;;;5103722;27;20055;-57
2021/01/14 00:47:20;;;;;;;3.05;1.85;;;;;;;;;;5084705;28;20342;-57
2021/01/14 00:49:47;;;;;;;2.92;1.70;;;;;;;;;;5084742;28;20027;-57
2021/01/14 00:52:13;;;;;;;2.92;2.10;;;;;;;;;;5084834;28;20101;-57
2021/01/14 00:54:39;;;;;;;2.35;1.75;;;;;;;;;;5091481;27;20153;-58
2021/01/14 00:57:09;;;;;;;3.00;1.88;;;;;;;;;;5104700;27;20034;-58
2021/01/14 00:59:35;;;;;;;4.13;2.20;;;;;;;;;;5107615;27;20513;-58
2021/01/14 01:02:01;;;;;;;3.33;2.05;;;;;;;;;;5104564;28;20127;-58
2021/01/14 01:04:28;;;;;;;4.55;2.33;;;;;;;;;;5105622;28;20110;-58
2021/01/14 01:06:54;;;;;;;3.60;2.15;;;;;;;;;;5105454;28;20032;-58
2021/01/14 01:09:23;;;;;;;3.40;2.25;;;;;;;;;;5105755;28;20141;-58
2021/01/14 01:11:49;;;;;;;3.53;2.17;;;;;;;;;;5105585;28;20481;-58
2021/01/14 01:14:16;;;;;;;3.30;2.00;;;;;;;;;;5098340;28;20126;-58
2021/01/14 01:16:43;;;;;;;3.75;2.45;;;;;;;;;;5085697;28;20181;-58
2021/01/14 01:19:09;;;;;;;3.65;2.25;;;;;;;;;;5084450;28;20028;-58
2021/01/14 01:21:36;;;;;;;5.47;3.40;;;;;;;;;;5085476;28;20081;-58
2021/01/14 01:24:02;;;;;;;4.82;3.65;;;;;;;;;;5083677;28;20024;-58
2021/01/14 01:26:29;;;;;;;5.03;3.20;;;;;;;;;;5084907;28;20086;-58
2021/01/14 01:28:56;;;;;;;4.18;2.78;;;;;;;;;;5084758;28;20114;-58
2021/01/14 01:31:22;;;;;;;2.95;2.17;;;;;;;;;;5083617;28;20450;-58
2021/01/14 01:33:48;;;;;;;3.63;2.53;;;;;;;;;;5084609;28;20030;-58
2021/01/14 01:36:14;;;;;;;4.45;3.20;;;;;;;;;;5084476;28;20051;-58
2021/01/14 01:38:41;;;;;;;4.07;3.08;;;;;;;;;;5084971;28;20027;-58
2021/01/14 01:41:07;;;;;;;3.72;2.38;;;;;;;;;;5084962;28;20251;-58
2021/01/14 01:43:33;;;;;;;3.25;2.42;;;;;;;;;;5085147;28;20033;-58
2021/01/14 01:46:00;;;;;;;2.63;1.90;;;;;;;;;;5084692;28;20035;-58
2021/01/14 01:48:27;;;;;;;4.38;2.30;;;;;;;;;;5084345;28;20023;-58
2021/01/14 01:50:56;;;;;;;2.67;1.90;;;;;;;;;;5083663;28;20043;-58
2021/01/14 01:53:22;;;;;;;2.65;1.92;;;;;;;;;;5083595;28;20089;-58
2021/01/14 01:55:49;;;;;;;2.85;1.70;;;;;;;;;;5084328;28;20035;-58
2021/01/14 01:58:15;;;;;;;3.40;2.00;;;;;;;;;;5084201;28;20028;-58
2021/01/14 02:00:41;;;;;;;2.95;2.05;;;;;;;;;;5084428;28;20022;-58
2021/01/14 02:03:07;;;;;;;1.95;1.60;;;;;;;;;;5084453;28;20024;-58
2021/01/14 02:05:36;;;;;;;2.65;1.98;;;;;;;;;;5085102;28;20031;-58
2021/01/14 02:08:16;;;;;;;1.70;1.33;;;;;;;;;;5084182;28;20089;-57
2021/01/14 02:10:47;;;;;;;1.92;1.50;;;;;;;;;;5084255;28;20032;-58
2021/01/14 02:13:22;;;;;;;2.42;1.73;;;;;;;;;;5084081;28;20024;-58
2021/01/14 02:15:49;;;;;;;2.28;1.60;;;;;;;;;;5084320;28;20437;-58
2021/01/14 02:18:16;;;;;;;3.80;2.15;;;;;;;;;;5084061;28;20553;-58
2021/01/14 02:20:43;;;;;;;1.73;1.38;;;;;;;;;;5084161;28;20028;-58
2021/01/14 02:23:17;;;;;;;2.00;1.40;;;;;;;;;;5084292;28;20027;-58
2021/01/14 02:26:03;;;;;;;2.13;1.63;;;;;;;;;;5084106;28;20103;-58
2021/01/14 02:28:29;;;;;;;2.03;1.33;;;;;;;;;;5084179;28;20020;-58
2021/01/14 02:30:56;;;;;;;1.65;1.45;;;;;;;;;;5085782;28;20135;-58
2021/01/14 02:33:22;;;;;;;1.35;1.20;;;;;;;;;;5087531;28;20031;-58
2021/01/14 02:35:48;;;;;;;1.63;1.42;;;;;;;;;;5087711;28;20024;-58
2021/01/14 02:38:15;;;;;;;1.77;1.50;;;;;;;;;;5088074;28;20096;-58
2021/01/14 02:40:41;;;;;;;1.40;1.20;;;;;;;;;;5088232;28;20516;-58
2021/01/14 02:43:07;;;;;;;2.80;1.70;;;;;;;;;;5088130;28;20248;-58
2021/01/14 02:45:34;;;;;;;1.75;1.30;;;;;;;;;;5087831;28;20025;-58
2021/01/14 02:48:02;;;;;;;1.40;1.27;;;;;;;;;;5087363;28;20082;-58
2021/01/14 02:50:28;;;;;;;1.35;1.08;;;;;;;;;;5087934;28;20923;-58
2021/01/14 02:52:58;;;;;;;1.77;1.40;;;;;;;;;;5087433;28;20028;-58
2021/01/14 02:55:25;;;;;;;1.65;1.38;;;;;;;;;;5087492;28;20078;-58
2021/01/14 02:57:51;;;;;;;2.15;1.40;;;;;;;;;;5087657;28;20039;-57
2021/01/14 03:00:17;;;;;;;1.48;1.30;;;;;;;;;;5087256;28;20114;-58
2021/01/14 03:02:43;;;;;;;2.13;1.35;;;;;;;;;;5087388;28;20451;-58
2021/01/14 03:05:10;;;;;;;1.83;1.35;;;;;;;;;;5087164;28;20032;-58
2021/01/14 03:07:35;;;;;;;1.20;1.10;;;;;;;;;;5088356;28;20020;-58
2021/01/14 03:10:01;;;;;;;2.08;1.20;;;;;;;;;;5087562;28;20505;-58
2021/01/14 03:12:27;;;;;;;1.83;0.90;;;;;;;;;;5087520;28;20119;-58
2021/01/14 03:14:54;;;;;;;0.98;0.80;;;;;;;;;;5086904;28;20537;-58
2021/01/14 03:17:22;;;;;;;1.85;1.10;;;;;;;;;;5087285;28;20532;-58
2021/01/14 03:19:49;;;;;;;1.23;1.00;;;;;;;;;;5086426;28;20028;-58
2021/01/14 03:22:16;;;;;;;0.75;0.75;;;;;;;;;;5087523;28;20063;-57
2021/01/14 03:24:42;;;;;;;1.73;1.10;;;;;;;;;;5086938;28;20035;-58
2021/01/14 03:27:08;;;;;;;1.45;1.05;;;;;;;;;;5086994;28;20028;-58
2021/01/14 03:29:34;;;;;;;0.80;0.80;;;;;;;;;;5086839;28;20032;-58
2021/01/14 03:32:00;;;;;;;2.10;1.20;;;;;;;;;;5086158;28;20603;-58
2021/01/14 03:34:26;;;;;;;2.08;1.45;;;;;;;;;;5086700;28;20406;-58
2021/01/14 03:37:00;;;;;;;1.63;1.40;;;;;;;;;;5087180;28;20390;-58
2021/01/14 03:39:27;;;;;;;3.45;2.28;;;;;;;;;;5086839;28;20397;-58
2021/01/14 03:41:54;;;;;;;2.47;1.98;;;;;;;;;;5086669;28;20046;-57
2021/01/14 03:44:21;;;;;;;3.15;2.20;;;;;;;;;;5086588;28;20024;-58
2021/01/14 03:46:49;;;;;;;3.90;2.08;;;;;;;;;;5086546;28;20035;-58
2021/01/14 03:49:15;;;;;;;3.85;2.08;;;;;;;;;;5086019;28;20028;-58
2021/01/14 03:51:46;;;;;;;1.88;1.60;;;;;;;;;;5086213;28;20052;-58
2021/01/14 03:54:12;;;;;;;2.65;1.60;;;;;;;;;;5086002;28;20073;-58
2021/01/14 03:56:39;;;;;;;3.53;2.50;;;;;;;;;;5086662;28;20024;-58
2021/01/14 03:59:05;;;;;;;2.63;1.65;;;;;;;;;;5086830;28;20044;-58
2021/01/14 04:01:32;;;;;;;2.00;1.77;;;;;;;;;;5086583;28;20028;-58
2021/01/14 04:03:58;;;;;;;2.42;1.52;;;;;;;;;;5086454;28;20059;-58
2021/01/14 04:06:34;;;;;;;1.85;1.40;;;;;;;;;;5086009;28;20031;-58
2021/01/14 04:09:01;;;;;;;1.70;1.60;;;;;;;;;;5086301;28;20502;-58
2021/01/14 04:11:28;;;;;;;2.15;1.60;;;;;;;;;;5084902;28;20020;-58
2021/01/14 04:13:53;;;;;;;1.70;1.40;;;;;;;;;;5086279;28;20081;-58
2021/01/14 04:16:20;;;;;;;2.58;1.73;;;;;;;;;;5085865;28;20505;-58
2021/01/14 04:18:47;;;;;;;1.27;1.13;;;;;;;;;;5086261;28;20505;-58
2021/01/14 04:21:13;;;;;;;1.30;1.08;;;;;;;;;;5085978;28;20055;-58
2021/01/14 04:23:39;;;;;;;1.15;1.05;;;;;;;;;;5086017;28;20020;-58
2021/01/14 04:26:05;;;;;;;1.77;1.00;;;;;;;;;;5086450;28;20038;-58
2021/01/14 04:28:31;;;;;;;1.95;0.95;;;;;;;;;;5085538;28;20024;-58
2021/01/14 04:30:57;;;;;;;1.45;1.15;;;;;;;;;;5083978;28;20441;-58
2021/01/14 04:33:24;;;;;;;2.70;1.00;;;;;;;;;;5085862;28;20027;-58
2021/01/14 04:35:52;;;;;;;2.40;1.20;;;;;;;;;;5086033;28;20031;-58
2021/01/14 04:38:19;;;;;;;1.25;1.05;;;;;;;;;;5085331;28;20024;-58
2021/01/14 04:40:46;;;;;;;3.15;1.00;;;;;;;;;;5086167;28;20035;-57
2021/01/14 04:43:13;;;;;;;0.75;0.75;;;;;;;;;;5085434;28;20024;-57
2021/01/14 04:45:41;;;;;;;1.27;1.02;;;;;;;;;;5085734;28;20024;-58
2021/01/14 04:48:09;;;;;;;1.80;1.27;;;;;;;;;;5085475;28;20274;-58
2021/01/14 04:50:36;;;;;;;1.75;1.27;;;;;;;;;;5086299;28;20310;-57
2021/01/14 04:53:04;;;;;;;2.22;1.17;;;;;;;;;;5084627;28;20049;-57
2021/01/14 04:55:37;;;;;;;1.92;1.20;;;;;;;;;;5085406;28;20027;-58
2021/01/14 04:58:04;;;;;;;1.90;1.02;;;;;;;;;;5085901;28;20032;-57
2021/01/14 05:00:31;;;;;;;1.25;0.70;;;;;;;;;;5085472;28;20020;-57
2021/01/14 05:03:04;;;;;;;2.33;0.73;;;;;;;;;;5085306;28;20472;-58
2021/01/14 05:05:33;;;;;;;0.93;0.77;;;;;;;;;;5085401;28;20077;-57
2021/01/14 05:08:06;;;;;;;0.75;0.70;;;;;;;;;;5085386;28;20020;-58
2021/01/14 05:10:34;;;;;;;0.80;0.70;;;;;;;;;;5086059;28;20099;-58
2021/01/14 05:13:00;;;;;;;1.10;0.70;;;;;;;;;;5085028;28;20036;-57
2021/01/14 05:15:27;;;;;;;1.40;0.70;;;;;;;;;;5085023;28;20706;-57
2021/01/14 05:18:00;;;;;;;0.40;0.40;;;;;;;;;;5092736;28;20038;-58
2021/01/14 05:20:27;;;;;;;0.75;0.60;;;;;;;;;;5106606;28;20019;-57
2021/01/14 05:23:05;;;;;;;1.83;0.60;;;;;;;;;;5106644;28;20432;-57
2021/01/14 05:25:32;;;;;;;1.05;0.60;;;;;;;;;;5107036;28;20049;-57
2021/01/14 05:28:11;;;;;;;1.30;1.00;;;;;;;;;;5106781;28;20407;-57
2021/01/14 05:30:38;;;;;;;0.75;0.55;;;;;;;;;;5106015;28;20465;-57
2021/01/14 05:33:04;;;;;;;0.63;0.50;;;;;;;;;;5107661;28;20436;-57
2021/01/14 05:35:31;;;;;;;0.40;0.40;;;;;;;;;;5106812;28;20039;-57
2021/01/14 05:38:03;;;;;;;0.70;0.40;;;;;;;;;;5106682;28;20936;-57
2021/01/14 05:40:30;;;;;;;0.43;0.43;;;;;;;;;;5105513;28;20027;-57
2021/01/14 05:43:04;;;;;;;0.50;0.40;;;;;;;;;;5103449;28;20039;-57
2021/01/14 05:45:30;;;;;;;0.70;0.70;;;;;;;;;;5104957;28;20344;-57
2021/01/14 05:48:09;;;;;;;0.40;0.40;;;;;;;;;;5104518;28;20569;-57
2021/01/14 05:50:45;;;;;;;0.68;0.40;;;;;;;;;;5105497;28;20015;-58
2021/01/14 05:53:16;;;;;;;0.30;0.30;;;;;;;;;;5104635;28;20036;-58
2021/01/14 05:55:43;;;;;;;0.52;0.35;;;;;;;;;;5105144;28;20015;-56
2021/01/14 05:58:12;;;;;;;0.15;0.15;;;;;;;;;;5106511;28;20024;-57
2021/01/14 06:00:41;;;;;;;0.30;0.30;;;;;;;;;;5106118;28;20586;-57
2021/01/14 06:03:23;;;;;;;0.28;0.28;;;;;;;;;;5105469;28;20030;-57
2021/01/14 06:05:51;;;;;;;2.78;1.80;;;;;;;;;;5104298;28;20219;-57
2021/01/14 06:08:23;;;;;;;13.35;5.60;;;;;;;;;;5104583;28;20584;-57
2021/01/14 06:10:50;;;;;;;11.75;4.93;;;;;;;;;;5104289;28;20378;-57
2021/01/14 06:13:16;;;;;;;16.58;7.40;;;;;;;;;;5104820;28;20040;-57
2021/01/14 06:15:42;;;;;;;17.30;7.25;;;;;;;;;;5104162;28;20016;-57
2021/01/14 06:18:09;;;;;;;15.70;7.78;;;;;;;;;;5104585;28;20444;-57
2021/01/14 06:20:36;;;;;;;17.08;8.07;;;;;;;;;;5104805;28;20134;-57
2021/01/14 06:23:02;;;;;;;13.00;6.03;;;;;;;;;;5105313;28;20460;-57
2021/01/14 06:25:29;;;;;;;16.35;7.43;;;;;;;;;;5104491;28;20401;-57
2021/01/14 06:27:55;;;;;;;19.65;8.40;;;;;;;;;;5104461;28;20063;-57
2021/01/14 06:30:21;;;;;;;14.93;6.80;;;;;;;;;;5104615;28;20566;-57
2021/01/14 06:32:59;;;;;;;11.00;5.45;;;;;;;;;;5104236;28;20077;-57
2021/01/14 06:35:26;;;;;;;8.95;4.22;;;;;;;;;;5104384;28;20051;-57
2021/01/14 06:37:54;;;;;;;6.63;3.47;;;;;;;;;;5104139;28;20099;-57
2021/01/14 06:40:28;;;;;;;5.00;3.05;;;;;;;;;;5104574;28;20139;-57
2021/01/14 06:42:57;;;;;;;4.97;2.90;;;;;;;;;;5104189;28;20034;-57
2021/01/14 06:45:24;;;;;;;5.75;3.50;;;;;;;;;;5104012;28;20042;-57
2021/01/14 06:48:02;;;;;;;5.55;3.90;;;;;;;;;;5103988;28;20020;-57
2021/01/14 06:50:28;;;;;;;4.10;2.85;;;;;;;;;;5104456;28;20023;-57
2021/01/14 06:53:00;;;;;;;4.05;2.53;;;;;;;;;;5103840;28;20016;-57
2021/01/14 06:55:28;;;;;;;4.47;2.42;;;;;;;;;;5104161;28;20076;-57
2021/01/14 06:57:57;;;;;;;4.18;2.42;;;;;;;;;;5104312;28;20050;-57
2021/01/14 07:00:24;;;;;;;3.92;2.22;;;;;;;;;;5104106;28;20470;-57
2021/01/14 07:02:52;;;;;;;2.40;1.60;;;;;;;;;;5103970;28;20030;-57
2021/01/14 07:05:23;;;;;;;3.92;1.90;;;;;;;;;;5104063;28;20024;-57
2021/01/14 07:07:49;;;;;;;2.25;1.33;;;;;;;;;;5103663;28;20068;-57
2021/01/14 07:10:17;;;;;;;2.03;1.20;;;;;;;;;;5104206;28;20137;-57
2021/01/14 07:12:44;;;;;;;1.95;1.00;;;;;;;;;;5104360;28;20019;-57
2021/01/14 07:15:11;;;;;;;2.75;1.42;;;;;;;;;;5103777;28;20035;-57
2021/01/14 07:17:39;;;;;;;2.85;1.35;;;;;;;;;;5107629;28;20024;-57
2021/01/14 07:20:10;;;;;;;1.95;1.30;;;;;;;;;;5108452;28;20092;-57
2021/01/14 07:22:38;;;;;;;2.72;1.50;;;;;;;;;;5107877;28;20024;-57
2021/01/14 07:25:05;;;;;;;2.88;1.30;;;;;;;;;;5107867;28;20057;-57
2021/01/14 07:27:34;;;;;;;1.65;1.20;;;;;;;;;;5107655;28;20343;-57
2021/01/14 07:30:00;;;;;;;2.08;1.52;;;;;;;;;;5111577;27;20026;-57
2021/01/14 07:33:04;;;;;;;2.15;1.58;;;;;;;;;;5108525;28;20031;-57
2021/01/14 07:35:34;;;;;;;2.03;1.40;;;;;;;;;;5056619;28;20032;-57
2021/01/14 07:38:00;;;;;;;3.53;1.50;;;;;;;;;;5088793;28;20448;-57
2021/01/14 07:40:30;;;;;;;2.72;1.75;;;;;;;;;;5088641;28;20032;-57
2021/01/14 07:42:57;;;;;;;1.85;1.20;;;;;;;;;;5089186;27;20577;-57
2021/01/14 07:45:23;;;;;;;1.50;1.17;;;;;;;;;;5088422;28;20023;-57
2021/01/14 07:47:49;;;;;;;1.58;1.20;;;;;;;;;;5088391;28;20024;-57
2021/01/14 07:50:25;;;;;;;1.17;0.90;;;;;;;;;;5092624;27;20550;-57
2021/01/14 07:52:51;;;;;;;1.30;1.08;;;;;;;;;;5109029;27;20020;-57
2021/01/14 07:55:24;;;;;;;1.90;1.20;;;;;;;;;;5111843;27;20026;-57
2021/01/14 07:58:00;;;;;;;0.90;0.80;;;;;;;;;;5129025;27;20695;-57
2021/01/14 08:00:26;;;;;;;1.25;1.00;;;;;;;;;;5128443;27;20035;-57
2021/01/14 08:03:04;;;;;;;1.10;0.90;;;;;;;;;;5127210;27;20518;-57
2021/01/14 08:05:40;;;;;;;1.52;0.80;;;;;;;;;;5127353;27;20034;-57
2021/01/14 08:08:24;;;;;;;4.00;2.03;;;;;;;;;;5128083;27;20133;-57
2021/01/14 08:11:06;;;;;;;3.13;1.38;;;;;;;;;;5127036;27;20031;-57
2021/01/14 08:13:32;;;;;;;1.92;1.00;;;;;;;;;;5127336;27;20122;-57
2021/01/14 08:15:59;;;;;;;1.10;0.93;;;;;;;;;;5126684;27;20102;-57
2021/01/14 08:18:25;;;;;;;1.35;0.90;;;;;;;;;;5127277;27;20076;-57
2021/01/14 08:21:09;;;;;;;1.67;0.85;;;;;;;;;;5126741;27;20039;-57
2021/01/14 08:23:41;;;;;;;1.10;0.80;;;;;;;;;;5127376;27;20057;-57
2021/01/14 08:26:11;;;;;;;0.57;0.57;;;;;;;;;;5126694;27;20023;-57
2021/01/14 08:28:37;;;;;;;0.68;0.68;;;;;;;;;;5125587;27;20035;-57
2021/01/14 08:31:03;;;;;;;0.82;0.73;;;;;;;;;;5127609;27;20027;-57
2021/01/14 08:33:30;;;;;;;2.22;1.02;;;;;;;;;;5126747;27;20019;-57
2021/01/14 08:36:06;;;;;;;1.20;0.82;;;;;;;;;;5126281;27;20339;-57
2021/01/14 08:38:32;;;;;;;1.38;1.00;;;;;;;;;;5126802;27;20031;-57
2021/01/14 08:41:01;;;;;;;2.38;1.45;;;;;;;;;;5126248;27;20042;-57
2021/01/14 08:43:40;;;;;;;1.95;1.13;;;;;;;;;;5126492;27;20023;-57
2021/01/14 08:46:06;;;;;;;2.80;1.55;;;;;;;;;;5127112;27;20185;-58
2021/01/14 08:48:32;;;;;;;1.40;1.00;;;;;;;;;;5127049;27;20492;-57
2021/01/14 08:50:58;;;;;;;2.35;1.45;;;;;;;;;;5126095;27;20484;-57
2021/01/14 08:53:35;;;;;;;2.00;1.27;;;;;;;;;;5125880;27;20049;-57
2021/01/14 08:56:01;;;;;;;2.80;1.95;;;;;;;;;;5126535;27;20278;-57
2021/01/14 08:58:38;;;;;;;3.03;2.15;;;;;;;;;;5126144;27;20019;-57
2021/01/14 09:01:06;;;;;;;3.58;1.98;;;;;;;;;;5126733;27;20569;-57
2021/01/14 09:03:33;;;;;;;3.40;2.10;;;;;;;;;;5126371;27;20050;-57
2021/01/14 09:05:59;;;;;;;3.40;2.08;;;;;;;;;;5125618;27;20023;-57
2021/01/14 09:08:25;;;;;;;4.13;2.15;;;;;;;;;;5126532;27;20029;-57
2021/01/14 09:10:52;;;;;;;3.92;2.33;;;;;;;;;;5125878;27;20110;-57
2021/01/14 09:13:19;;;;;;;4.97;3.05;;;;;;;;;;5125730;27;20058;-57
2021/01/14 09:15:46;;;;;;;6.13;3.40;;;;;;;;;;5124322;27;20454;-57
2021/01/14 09:18:12;;;;;;;6.55;3.45;;;;;;;;;;5125980;27;20027;-57
2021/01/14 09:20:38;;;;;;;5.53;3.25;;;;;;;;;;5125700;27;20140;-57
2021/01/14 09:23:21;;;;;;;7.55;3.42;;;;;;;;;;5126409;27;20027;-57
2021/01/14 09:25:49;;;;;;;5.57;3.03;;;;;;;;;;5125438;27;20030;-57
2021/01/14 09:28:17;;;;;;;5.20;3.15;;;;;;;;;;5125522;27;20027;-57
2021/01/14 09:30:43;;;;;;;5.10;2.75;;;;;;;;;;5125353;27;20022;-57
2021/01/14 09:33:09;;;;;;;5.65;3.10;;;;;;;;;;5125973;27;20065;-57
2021/01/14 09:35:36;;;;;;;6.07;3.67;;;;;;;;;;5125980;27;20103;-57
2021/01/14 09:38:02;;;;;;;5.63;3.28;;;;;;;;;;5125937;27;20027;-57
2021/01/14 09:40:28;;;;;;;7.80;3.70;;;;;;;;;;5125774;27;20430;-57
2021/01/14 09:42:54;;;;;;;7.55;4.32;;;;;;;;;;5125026;27;20164;-57
2021/01/14 09:45:21;;;;;;;7.18;4.43;;;;;;;;;;5126006;27;20095;-57
2021/01/14 09:47:48;;;;;;;8.20;4.90;;;;;;;;;;5125167;27;20023;-57
2021/01/14 09:50:15;;;;;;;7.30;3.70;;;;;;;;;;5125586;27;20041;-57
2021/01/14 09:52:43;;;;;;;5.97;3.58;;;;;;;;;;5124985;27;20027;-57
2021/01/14 09:55:10;;;;;;;6.20;3.88;;;;;;;;;;5125165;27;20030;-57
2021/01/14 09:57:38;;;;;;;7.15;4.20;;;;;;;;;;5125407;27;20038;-57
2021/01/14 10:00:04;;;;;;;6.20;3.90;;;;;;;;;;5126134;27;20016;-57
2021/01/14 10:02:33;;;;;;;6.90;3.63;;;;;;;;;;5099967;28;20091;-57
2021/01/14 10:05:00;;;;;;;5.57;3.70;;;;;;;;;;5087717;28;20031;-57
2021/01/14 10:07:27;;;;;;;6.22;3.72;;;;;;;;;;5095557;28;20031;-57
2021/01/14 10:09:54;;;;;;;6.53;3.88;;;;;;;;;;5092701;28;20400;-57
2021/01/14 10:12:20;;;;;;;6.75;3.70;;;;;;;;;;5104646;28;20027;-57
2021/01/14 10:14:47;;;;;;;8.82;5.10;;;;;;;;;;5103436;28;20462;-57
2021/01/14 10:17:17;;;;;;;8.50;4.78;;;;;;;;;;5103730;28;20028;-54
2021/01/14 10:19:49;;;;;;;7.55;3.97;;;;;;;;;;5102836;28;20507;-54
2021/01/14 10:22:16;;;;;;;6.60;3.15;;;;;;;;;;5103895;28;20027;-53
2021/01/14 10:24:42;;;;;;;4.50;2.78;;;;;;;;;;5103692;28;20453;-53
2021/01/14 10:27:15;;;;;;;3.20;2.15;;;;;;;;;;5103019;28;20031;-52
2021/01/14 10:29:42;;;;;;;3.50;1.95;;;;;;;;;;5103008;28;20026;-55
2021/01/14 10:32:12;;;;;;;2.80;1.80;;;;;;;;;;5103642;28;20023;-56
2021/01/14 10:34:43;;;;;;;2.53;1.30;;;;;;;;;;5085222;28;20515;-53
2021/01/14 10:37:29;;;;;;;2.88;1.50;;;;;;;;;;5083493;28;20550;-56
2021/01/14 10:40:03;;;;;;;2.28;1.20;;;;;;;;;;5082963;28;20024;-54
2021/01/14 10:42:36;;;;;;;1.33;0.90;;;;;;;;;;5103934;28;20027;-53
2021/01/14 10:45:06;;;;;;;3.10;1.45;;;;;;;;;;5103887;28;20035;-53
2021/01/14 10:47:33;;;;;;;1.48;1.00;;;;;;;;;;5104547;28;20020;-53
2021/01/14 10:49:59;;;;;;;1.83;1.13;;;;;;;;;;5102739;28;20023;-54
2021/01/14 10:52:25;;;;;;;1.52;1.25;;;;;;;;;;5106800;27;20646;-55
2021/01/14 10:54:58;;;;;;;1.65;1.20;;;;;;;;;;5087301;28;20051;-55
2021/01/14 10:57:24;;;;;;;2.55;1.60;;;;;;;;;;5094004;28;20102;-56
2021/01/14 10:59:50;;;;;;;1.85;1.38;;;;;;;;;;5107520;28;20081;-55
2021/01/14 11:02:22;;;;;;;2.70;1.70;;;;;;;;;;5107464;28;20023;-56
2021/01/14 11:04:54;;;;;;;2.80;1.65;;;;;;;;;;5107086;28;20031;-56
2021/01/14 11:07:21;;;;;;;3.50;2.05;;;;;;;;;;5106811;28;20409;-55
2021/01/14 11:09:51;;;;;;;5.47;2.55;;;;;;;;;;5102147;27;20028;-56
2021/01/14 11:12:19;;;;;;;4.57;2.25;;;;;;;;;;5105655;27;20085;-55
2021/01/14 11:14:46;;;;;;;5.07;2.60;;;;;;;;;;5086504;28;20081;-56
2021/01/14 11:17:13;;;;;;;4.13;2.33;;;;;;;;;;5100906;28;20023;-56
2021/01/14 11:19:40;;;;;;;4.03;2.60;;;;;;;;;;5107019;28;20019;-53
2021/01/14 11:22:06;;;;;;;5.38;3.15;;;;;;;;;;5107599;28;20114;-51
2021/01/14 11:24:31;;;;;;;6.50;3.47;;;;;;;;;;5107123;28;20055;-55
2021/01/14 11:26:57;;;;;;;5.63;3.63;;;;;;;;;;5094766;27;20079;-55
2021/01/14 11:29:24;;;;;;;6.20;3.90;;;;;;;;;;5086646;28;20023;-56
2021/01/14 11:31:50;;;;;;;6.15;3.35;;;;;;;;;;5086036;28;20103;-55
2021/01/14 11:34:16;;;;;;;5.88;3.22;;;;;;;;;;5104504;28;20107;-55
2021/01/14 11:36:42;;;;;;;5.65;2.65;;;;;;;;;;5106054;27;20039;-56
2021/01/14 11:39:08;;;;;;;5.38;3.40;;;;;;;;;;5106929;28;20505;-56
2021/01/14 11:41:35;;;;;;;5.30;2.70;;;;;;;;;;5107229;28;20031;-55
2021/01/14 11:44:02;;;;;;;4.72;2.80;;;;;;;;;;5106763;28;20110;-56
2021/01/14 11:46:29;;;;;;;3.35;2.40;;;;;;;;;;5102839;27;20126;-56
2021/01/14 11:48:56;;;;;;;3.25;2.40;;;;;;;;;;5085842;28;20055;-55
2021/01/14 11:51:23;;;;;;;4.82;2.03;;;;;;;;;;5086141;28;20472;-56
2021/01/14 11:53:49;;;;;;;2.35;1.73;;;;;;;;;;5085354;28;20028;-55
2021/01/14 11:56:15;;;;;;;3.28;2.00;;;;;;;;;;5086279;27;20323;-55
2021/01/14 11:58:43;;;;;;;3.67;2.13;;;;;;;;;;5091330;28;20042;-56
2021/01/14 12:01:09;;;;;;;3.90;2.33;;;;;;;;;;5106158;28;20027;-55
2021/01/14 12:03:35;;;;;;;3.05;2.15;;;;;;;;;;5107029;28;20528;-57
2021/01/14 12:06:01;;;;;;;4.15;2.17;;;;;;;;;;5107318;27;20035;-56
2021/01/14 12:08:27;;;;;;;6.70;2.97;;;;;;;;;;5106342;27;20435;-57
2021/01/14 12:10:53;;;;;;;4.68;2.78;;;;;;;;;;5106002;27;20551;-57
2021/01/14 12:13:19;;;;;;;6.10;3.47;;;;;;;;;;5105875;28;20110;-57
2021/01/14 12:15:45;;;;;;;6.18;3.25;;;;;;;;;;5106655;27;20107;-57
2021/01/14 12:18:12;;;;;;;6.40;3.50;;;;;;;;;;5107217;27;20617;-56
2021/01/14 12:20:38;;;;;;;7.10;3.80;;;;;;;;;;5105897;28;20451;-57
2021/01/14 12:23:04;;;;;;;7.80;4.78;;;;;;;;;;5105155;28;20427;-57
2021/01/14 12:25:31;;;;;;;6.82;3.97;;;;;;;;;;5099160;27;20042;-56
2021/01/14 12:27:57;;;;;;;7.78;3.72;;;;;;;;;;5084835;28;20115;-57
2021/01/14 12:30:24;;;;;;;6.90;3.92;;;;;;;;;;5085737;28;20493;-56
2021/01/14 12:32:50;;;;;;;5.13;3.15;;;;;;;;;;5106346;27;20024;-57
2021/01/14 12:35:17;;;;;;;5.88;3.63;;;;;;;;;;5105696;28;20522;-56
2021/01/14 12:37:43;;;;;;;6.63;3.42;;;;;;;;;;5104351;28;20051;-56
2021/01/14 12:40:09;;;;;;;5.70;3.53;;;;;;;;;;5105665;28;20082;-56
2021/01/14 12:42:36;;;;;;;6.82;3.35;;;;;;;;;;5109054;27;20281;-56
2021/01/14 12:45:02;;;;;;;5.13;2.90;;;;;;;;;;5105723;28;20031;-57
2021/01/14 12:47:28;;;;;;;4.25;2.92;;;;;;;;;;5105391;28;20536;-56
2021/01/14 12:49:55;;;;;;;5.32;3.10;;;;;;;;;;5105660;28;20055;-56
2021/01/14 12:52:21;;;;;;;5.32;2.90;;;;;;;;;;5099278;28;20020;-56
2021/01/14 12:54:47;;;;;;;3.80;2.80;;;;;;;;;;5105941;27;20027;-56
2021/01/14 12:57:13;;;;;;;5.13;3.25;;;;;;;;;;5107428;28;20038;-56
2021/01/14 12:59:39;;;;;;;5.47;3.40;;;;;;;;;;5106828;28;20034;-56
2021/01/14 13:02:06;;;;;;;5.97;3.63;;;;;;;;;;5106323;28;20024;-56
2021/01/14 13:04:32;;;;;;;5.57;3.13;;;;;;;;;;5106176;28;20036;-56
2021/01/14 13:06:58;;;;;;;3.85;2.78;;;;;;;;;;5105124;28;20027;-56
2021/01/14 13:09:24;;;;;;;5.45;3.15;;;;;;;;;;5105875;28;20270;-56
2021/01/14 13:11:54;;;;;;;4.03;2.55;;;;;;;;;;5105137;28;20409;-56
2021/01/14 13:14:20;;;;;;;5.85;3.25;;;;;;;;;;5104651;28;20032;-56
2021/01/14 13:16:46;;;;;;;5.07;2.90;;;;;;;;;;5104885;28;20031;-56
2021/01/14 13:19:12;;;;;;;3.92;2.45;;;;;;;;;;5105324;28;20031;-56
2021/01/14 13:21:48;;;;;;;3.83;2.40;;;;;;;;;;5105040;28;20054;-56
2021/01/14 13:24:16;;;;;;;3.10;2.40;;;;;;;;;;5105293;28;20114;-57
2021/01/14 13:26:42;;;;;;;4.13;2.50;;;;;;;;;;5104624;28;20031;-56
2021/01/14 13:29:10;;;;;;;4.10;2.35;;;;;;;;;;5104999;28;20023;-56
2021/01/14 13:31:50;;;;;;;3.90;2.22;;;;;;;;;;5105393;28;20417;-56
2021/01/14 13:34:16;;;;;;;5.15;3.05;;;;;;;;;;5105058;28;20165;-56
2021/01/14 13:36:43;;;;;;;4.53;2.70;;;;;;;;;;5104859;28;20027;-56
2021/01/14 13:39:09;;;;;;;3.20;2.50;;;;;;;;;;5104836;28;20024;-56
2021/01/14 13:41:37;;;;;;;3.63;2.42;;;;;;;;;;5105150;28;20030;-56
2021/01/14 13:44:04;;;;;;;3.72;2.50;;;;;;;;;;5105686;28;20101;-56
2021/01/14 13:46:30;;;;;;;4.50;2.90;;;;;;;;;;5104929;28;20023;-56
2021/01/14 13:49:03;;;;;;;5.15;3.22;;;;;;;;;;5104555;28;20050;-56
2021/01/14 13:51:34;;;;;;;5.50;3.38;;;;;;;;;;5104897;28;20024;-56
2021/01/14 13:54:02;;;;;;;6.10;3.78;;;;;;;;;;5104157;28;20087;-57
2021/01/14 13:56:29;;;;;;;5.95;3.13;;;;;;;;;;5104461;28;20023;-56
2021/01/14 13:58:56;;;;;;;5.07;3.35;;;;;;;;;;5104328;28;20031;-56
2021/01/14 14:01:26;;;;;;;4.78;3.05;;;;;;;;;;5104864;28;20566;-56
2021/01/14 14:03:55;;;;;;;4.40;2.97;;;;;;;;;;5104391;28;20027;-56
2021/01/14 14:06:30;;;;;;;6.03;3.33;;;;;;;;;;5104442;28;20034;-55
2021/01/14 14:08:56;;;;;;;5.13;3.35;;;;;;;;;;5104465;28;20123;-55
2021/01/14 14:11:24;;;;;;;4.40;2.80;;;;;;;;;;5104057;28;20030;-56
2021/01/14 14:13:50;;;;;;;4.88;2.83;;;;;;;;;;5099786;28;20020;-56
2021/01/14 14:16:16;;;;;;;5.38;2.92;;;;;;;;;;5105922;28;20696;-56
2021/01/14 14:18:43;;;;;;;5.15;3.05;;;;;;;;;;5091497;28;20031;-56
2021/01/14 14:21:12;;;;;;;5.97;3.08;;;;;;;;;;5104937;28;20717;-57
2021/01/14 14:23:38;;;;;;;4.93;3.35;;;;;;;;;;5106265;28;20505;-56
2021/01/14 14:26:04;;;;;;;5.28;3.65;;;;;;;;;;5107643;28;20111;-56
2021/01/14 14:28:30;;;;;;;4.25;2.90;;;;;;;;;;5113059;27;20023;-57
2021/01/14 14:30:56;;;;;;;4.35;2.88;;;;;;;;;;5093699;28;20520;-56
2021/01/14 14:33:22;;;;;;;5.68;2.88;;;;;;;;;;5103655;27;20080;-57
2021/01/14 14:35:49;;;;;;;4.78;2.90;;;;;;;;;;5109873;28;20043;-56
2021/01/14 14:38:15;;;;;;;7.20;3.28;;;;;;;;;;5109087;27;20400;-56
2021/01/14 14:40:41;;;;;;;4.30;3.10;;;;;;;;;;5107254;27;20024;-56
2021/01/14 14:43:07;;;;;;;4.45;3.00;;;;;;;;;;5110158;28;20035;-56
2021/01/14 14:45:33;;;;;;;7.35;3.38;;;;;;;;;;5109545;28;20477;-56
2021/01/14 14:47:59;;;;;;;4.68;3.25;;;;;;;;;;5107143;27;20063;-56
2021/01/14 14:50:25;;;;;;;6.32;3.75;;;;;;;;;;5109994;28;20020;-56